sensor_id;sensor_type;location;lat;lon;timestamp;temperature;humidity
13412;DHT22;67102;51.666;6.880;2023-02-28T00:00:17;5.60;59.30
13412;DHT22;67102;51.666;6.880;2023-02-28T00:02:45;5.60;59.00
13412;DHT22;67102;51.666;6.880;2023-02-28T00:05:13;5.60;58.80
13412;DHT22;67102;51.666;6.880;2023-02-28T00:07:40;5.50;59.30
13412;DHT22;67102;51.666;6.880;2023-02-28T00:10:08;5.50;60.00
13412;DHT22;67102;51.666;6.880;2023-02-28T00:12:37;5.50;60.00
13412;DHT22;67102;51.666;6.880;2023-02-28T00:15:06;5.40;60.10
13412;DHT22;67102;51.666;6.880;2023-02-28T00:17:33;5.50;60.10
13412;DHT22;67102;51.666;6.880;2023-02-28T00:19:59;5.40;60.60
13412;DHT22;67102;51.666;6.880;2023-02-28T00:22:25;5.30;61.90
13412;DHT22;67102;51.666;6.880;2023-02-28T00:24:51;5.30;61.30
13412;DHT22;67102;51.666;6.880;2023-02-28T00:27:17;5.20;62.00
13412;DHT22;67102;51.666;6.880;2023-02-28T00:29:46;5.20;62.20
13412;DHT22;67102;51.666;6.880;2023-02-28T00:32:12;5.20;62.40
13412;DHT22;67102;51.666;6.880;2023-02-28T00:34:38;5.10;62.50
13412;DHT22;67102;51.666;6.880;2023-02-28T00:37:05;5.10;62.50
13412;DHT22;67102;51.666;6.880;2023-02-28T00:39:32;5.10;62.50
13412;DHT22;67102;51.666;6.880;2023-02-28T00:41:59;5.00;62.80
13412;DHT22;67102;51.666;6.880;2023-02-28T00:44:25;5.00;62.70
13412;DHT22;67102;51.666;6.880;2023-02-28T00:46:52;5.00;62.90
13412;DHT22;67102;51.666;6.880;2023-02-28T00:49:18;5.00;63.00
13412;DHT22;67102;51.666;6.880;2023-02-28T00:51:44;5.00;63.20
13412;DHT22;67102;51.666;6.880;2023-02-28T00:54:10;5.00;63.20
13412;DHT22;67102;51.666;6.880;2023-02-28T00:56:36;5.00;63.20
13412;DHT22;67102;51.666;6.880;2023-02-28T00:59:02;4.90;63.10
13412;DHT22;67102;51.666;6.880;2023-02-28T01:01:28;4.90;63.10
13412;DHT22;67102;51.666;6.880;2023-02-28T01:03:55;4.90;62.70
13412;DHT22;67102;51.666;6.880;2023-02-28T01:06:21;4.90;63.00
13412;DHT22;67102;51.666;6.880;2023-02-28T01:08:47;4.90;62.40
13412;DHT22;67102;51.666;6.880;2023-02-28T01:11:16;4.90;62.60
13412;DHT22;67102;51.666;6.880;2023-02-28T01:13:43;4.90;62.40
13412;DHT22;67102;51.666;6.880;2023-02-28T01:16:10;4.90;62.70
13412;DHT22;67102;51.666;6.880;2023-02-28T01:18:36;4.90;62.60
13412;DHT22;67102;51.666;6.880;2023-02-28T01:21:05;4.90;62.50
13412;DHT22;67102;51.666;6.880;2023-02-28T01:23:31;5.00;62.70
13412;DHT22;67102;51.666;6.880;2023-02-28T01:25:57;4.80;62.40
13412;DHT22;67102;51.666;6.880;2023-02-28T01:28:29;4.80;62.30
13412;DHT22;67102;51.666;6.880;2023-02-28T01:30:55;4.80;62.00
13412;DHT22;67102;51.666;6.880;2023-02-28T01:33:21;4.80;62.00
13412;DHT22;67102;51.666;6.880;2023-02-28T01:35:47;4.80;61.80
13412;DHT22;67102;51.666;6.880;2023-02-28T01:38:14;4.80;62.10
13412;DHT22;67102;51.666;6.880;2023-02-28T01:40:40;4.80;62.00
13412;DHT22;67102;51.666;6.880;2023-02-28T01:43:20;4.80;62.20
13412;DHT22;67102;51.666;6.880;2023-02-28T01:45:48;4.80;62.50
13412;DHT22;67102;51.666;6.880;2023-02-28T01:48:14;4.80;62.00
13412;DHT22;67102;51.666;6.880;2023-02-28T01:50:42;4.80;61.80
13412;DHT22;67102;51.666;6.880;2023-02-28T01:53:15;4.80;62.00
13412;DHT22;67102;51.666;6.880;2023-02-28T01:55:46;4.80;62.00
13412;DHT22;67102;51.666;6.880;2023-02-28T01:58:14;4.80;61.90
13412;DHT22;67102;51.666;6.880;2023-02-28T02:00:40;4.80;61.70
13412;DHT22;67102;51.666;6.880;2023-02-28T02:03:08;4.80;61.60
13412;DHT22;67102;51.666;6.880;2023-02-28T02:05:37;4.80;61.50
13412;DHT22;67102;51.666;6.880;2023-02-28T02:08:06;4.70;61.70
13412;DHT22;67102;51.666;6.880;2023-02-28T02:10:41;4.70;61.30
13412;DHT22;67102;51.666;6.880;2023-02-28T02:13:16;4.70;61.40
13412;DHT22;67102;51.666;6.880;2023-02-28T02:15:57;4.70;61.40
13412;DHT22;67102;51.666;6.880;2023-02-28T02:18:33;4.70;61.40
13412;DHT22;67102;51.666;6.880;2023-02-28T02:21:25;4.70;61.10
13412;DHT22;67102;51.666;6.880;2023-02-28T02:24:30;4.70;61.40
13412;DHT22;67102;51.666;6.880;2023-02-28T02:27:13;4.70;61.20
13412;DHT22;67102;51.666;6.880;2023-02-28T02:33:06;4.60;60.80
13412;DHT22;67102;51.666;6.880;2023-02-28T02:35:43;4.60;60.60
13412;DHT22;67102;51.666;6.880;2023-02-28T02:38:18;4.60;60.50
13412;DHT22;67102;51.666;6.880;2023-02-28T02:40:57;4.50;60.60
13412;DHT22;67102;51.666;6.880;2023-02-28T02:43:32;4.60;60.30
13412;DHT22;67102;51.666;6.880;2023-02-28T02:46:04;4.50;60.10
13412;DHT22;67102;51.666;6.880;2023-02-28T02:48:35;4.50;60.00
13412;DHT22;67102;51.666;6.880;2023-02-28T02:51:07;4.50;60.00
13412;DHT22;67102;51.666;6.880;2023-02-28T02:53:42;4.50;60.50
13412;DHT22;67102;51.666;6.880;2023-02-28T02:56:12;4.50;59.90
13412;DHT22;67102;51.666;6.880;2023-02-28T02:58:42;4.40;59.70
13412;DHT22;67102;51.666;6.880;2023-02-28T03:01:12;4.40;59.80
13412;DHT22;67102;51.666;6.880;2023-02-28T03:03:42;4.40;59.80
13412;DHT22;67102;51.666;6.880;2023-02-28T03:06:10;4.30;59.70
13412;DHT22;67102;51.666;6.880;2023-02-28T03:08:37;4.30;59.70
13412;DHT22;67102;51.666;6.880;2023-02-28T03:11:05;6.00;60.70
13412;DHT22;67102;51.666;6.880;2023-02-28T03:13:48;4.20;59.70
13412;DHT22;67102;51.666;6.880;2023-02-28T03:16:35;4.20;60.00
13412;DHT22;67102;51.666;6.880;2023-02-28T03:19:34;4.20;59.80
13412;DHT22;67102;51.666;6.880;2023-02-28T03:22:27;4.10;60.40
13412;DHT22;67102;51.666;6.880;2023-02-28T03:25:18;4.10;61.10
13412;DHT22;67102;51.666;6.880;2023-02-28T03:27:55;4.10;59.80
13412;DHT22;67102;51.666;6.880;2023-02-28T03:30:35;4.00;60.20
13412;DHT22;67102;51.666;6.880;2023-02-28T03:33:07;4.00;61.00
13412;DHT22;67102;51.666;6.880;2023-02-28T03:35:39;4.60;61.30
13412;DHT22;67102;51.666;6.880;2023-02-28T03:38:12;3.90;60.70
13412;DHT22;67102;51.666;6.880;2023-02-28T03:40:44;3.90;60.70
13412;DHT22;67102;51.666;6.880;2023-02-28T03:43:17;3.90;60.80
13412;DHT22;67102;51.666;6.880;2023-02-28T03:45:46;3.90;61.00
13412;DHT22;67102;51.666;6.880;2023-02-28T03:48:17;3.80;60.80
13412;DHT22;67102;51.666;6.880;2023-02-28T03:50:48;3.80;61.10
13412;DHT22;67102;51.666;6.880;2023-02-28T03:53:21;3.80;61.40
13412;DHT22;67102;51.666;6.880;2023-02-28T03:55:56;3.70;62.00
13412;DHT22;67102;51.666;6.880;2023-02-28T03:58:28;3.70;62.10
13412;DHT22;67102;51.666;6.880;2023-02-28T04:01:00;3.70;62.10
13412;DHT22;67102;51.666;6.880;2023-02-28T04:03:29;3.70;62.90
13412;DHT22;67102;51.666;6.880;2023-02-28T04:05:56;3.60;62.60
13412;DHT22;67102;51.666;6.880;2023-02-28T04:08:24;3.60;62.20
13412;DHT22;67102;51.666;6.880;2023-02-28T04:11:03;3.60;61.80
13412;DHT22;67102;51.666;6.880;2023-02-28T04:13:30;3.60;61.80
13412;DHT22;67102;51.666;6.880;2023-02-28T04:15:56;3.60;61.20
13412;DHT22;67102;51.666;6.880;2023-02-28T04:18:22;3.60;61.20
13412;DHT22;67102;51.666;6.880;2023-02-28T04:20:48;3.60;60.90
13412;DHT22;67102;51.666;6.880;2023-02-28T04:23:14;3.60;60.70
13412;DHT22;67102;51.666;6.880;2023-02-28T04:25:41;3.60;60.60
13412;DHT22;67102;51.666;6.880;2023-02-28T04:28:07;3.60;60.60
13412;DHT22;67102;51.666;6.880;2023-02-28T04:30:33;3.50;60.60
13412;DHT22;67102;51.666;6.880;2023-02-28T04:32:59;3.50;60.50
13412;DHT22;67102;51.666;6.880;2023-02-28T04:35:25;3.50;60.70
13412;DHT22;67102;51.666;6.880;2023-02-28T04:37:53;3.50;60.90
13412;DHT22;67102;51.666;6.880;2023-02-28T04:40:19;3.50;61.10
13412;DHT22;67102;51.666;6.880;2023-02-28T04:42:46;3.40;61.40
13412;DHT22;67102;51.666;6.880;2023-02-28T04:45:12;3.50;61.20
13412;DHT22;67102;51.666;6.880;2023-02-28T04:47:38;3.40;61.20
13412;DHT22;67102;51.666;6.880;2023-02-28T04:50:05;3.50;61.40
13412;DHT22;67102;51.666;6.880;2023-02-28T04:52:31;3.40;61.20
13412;DHT22;67102;51.666;6.880;2023-02-28T04:54:57;3.40;60.90
13412;DHT22;67102;51.666;6.880;2023-02-28T04:57:23;3.40;61.80
13412;DHT22;67102;51.666;6.880;2023-02-28T04:59:50;3.40;60.70
13412;DHT22;67102;51.666;6.880;2023-02-28T05:02:16;3.40;60.60
13412;DHT22;67102;51.666;6.880;2023-02-28T05:04:42;3.40;60.50
13412;DHT22;67102;51.666;6.880;2023-02-28T05:07:08;3.40;60.60
13412;DHT22;67102;51.666;6.880;2023-02-28T05:09:34;3.30;60.40
13412;DHT22;67102;51.666;6.880;2023-02-28T05:12:00;3.30;61.60
13412;DHT22;67102;51.666;6.880;2023-02-28T05:14:26;3.20;61.70
13412;DHT22;67102;51.666;6.880;2023-02-28T05:16:53;3.20;61.60
13412;DHT22;67102;51.666;6.880;2023-02-28T05:19:19;3.20;62.10
13412;DHT22;67102;51.666;6.880;2023-02-28T05:21:50;3.10;61.80
13412;DHT22;67102;51.666;6.880;2023-02-28T05:24:17;3.10;62.10
13412;DHT22;67102;51.666;6.880;2023-02-28T05:26:43;5.80;63.60
13412;DHT22;67102;51.666;6.880;2023-02-28T05:29:10;3.10;61.90
13412;DHT22;67102;51.666;6.880;2023-02-28T05:31:36;3.10;62.10
13412;DHT22;67102;51.666;6.880;2023-02-28T05:34:03;3.10;62.10
13412;DHT22;67102;51.666;6.880;2023-02-28T05:36:30;4.90;63.40
13412;DHT22;67102;51.666;6.880;2023-02-28T05:38:55;3.00;62.20
13412;DHT22;67102;51.666;6.880;2023-02-28T05:41:21;3.10;62.30
13412;DHT22;67102;51.666;6.880;2023-02-28T05:43:47;3.10;62.10
13412;DHT22;67102;51.666;6.880;2023-02-28T05:46:14;3.10;61.80
13412;DHT22;67102;51.666;6.880;2023-02-28T05:48:41;3.10;62.00
13412;DHT22;67102;51.666;6.880;2023-02-28T05:51:09;3.10;62.20
13412;DHT22;67102;51.666;6.880;2023-02-28T05:53:35;3.10;62.50
13412;DHT22;67102;51.666;6.880;2023-02-28T05:56:01;3.00;62.10
13412;DHT22;67102;51.666;6.880;2023-02-28T05:58:28;3.00;61.80
13412;DHT22;67102;51.666;6.880;2023-02-28T06:00:54;3.10;62.20
13412;DHT22;67102;51.666;6.880;2023-02-28T06:03:20;3.00;62.40
13412;DHT22;67102;51.666;6.880;2023-02-28T06:05:46;3.00;62.10
13412;DHT22;67102;51.666;6.880;2023-02-28T06:08:13;3.00;61.70
13412;DHT22;67102;51.666;6.880;2023-02-28T06:10:39;3.00;61.60
13412;DHT22;67102;51.666;6.880;2023-02-28T06:13:05;3.00;61.60
13412;DHT22;67102;51.666;6.880;2023-02-28T06:15:31;3.00;62.10
13412;DHT22;67102;51.666;6.880;2023-02-28T06:17:58;3.00;62.70
13412;DHT22;67102;51.666;6.880;2023-02-28T06:20:25;3.00;62.80
13412;DHT22;67102;51.666;6.880;2023-02-28T06:22:52;3.00;63.00
13412;DHT22;67102;51.666;6.880;2023-02-28T06:25:19;3.00;63.00
13412;DHT22;67102;51.666;6.880;2023-02-28T06:27:45;3.00;62.80
13412;DHT22;67102;51.666;6.880;2023-02-28T06:30:12;3.00;62.80
13412;DHT22;67102;51.666;6.880;2023-02-28T06:32:38;3.00;63.00
13412;DHT22;67102;51.666;6.880;2023-02-28T06:35:04;3.00;63.10
13412;DHT22;67102;51.666;6.880;2023-02-28T06:37:31;3.00;63.10
13412;DHT22;67102;51.666;6.880;2023-02-28T06:39:57;3.00;63.00
13412;DHT22;67102;51.666;6.880;2023-02-28T06:42:24;3.10;63.20
13412;DHT22;67102;51.666;6.880;2023-02-28T06:44:50;3.20;63.70
13412;DHT22;67102;51.666;6.880;2023-02-28T06:47:16;3.20;63.50
13412;DHT22;67102;51.666;6.880;2023-02-28T06:49:42;3.30;63.50
13412;DHT22;67102;51.666;6.880;2023-02-28T06:52:08;3.40;63.50
13412;DHT22;67102;51.666;6.880;2023-02-28T06:54:35;3.50;63.70
13412;DHT22;67102;51.666;6.880;2023-02-28T06:57:02;3.60;64.10
13412;DHT22;67102;51.666;6.880;2023-02-28T06:59:29;3.70;64.70
13412;DHT22;67102;51.666;6.880;2023-02-28T07:01:55;3.80;65.50
13412;DHT22;67102;51.666;6.880;2023-02-28T07:04:22;4.10;66.40
13412;DHT22;67102;51.666;6.880;2023-02-28T07:06:48;4.40;66.80
13412;DHT22;67102;51.666;6.880;2023-02-28T07:09:14;4.60;66.80
13412;DHT22;67102;51.666;6.880;2023-02-28T07:11:40;4.90;66.90
13412;DHT22;67102;51.666;6.880;2023-02-28T07:14:06;5.20;67.20
13412;DHT22;67102;51.666;6.880;2023-02-28T07:16:34;5.60;67.00
13412;DHT22;67102;51.666;6.880;2023-02-28T07:18:59;5.90;66.10
13412;DHT22;67102;51.666;6.880;2023-02-28T07:21:25;6.30;65.80
13412;DHT22;67102;51.666;6.880;2023-02-28T07:23:51;6.60;65.80
13412;DHT22;67102;51.666;6.880;2023-02-28T07:26:19;6.90;66.20
13412;DHT22;67102;51.666;6.880;2023-02-28T07:28:47;7.20;65.50
13412;DHT22;67102;51.666;6.880;2023-02-28T07:31:14;7.50;64.60
13412;DHT22;67102;51.666;6.880;2023-02-28T07:33:42;7.90;63.80
13412;DHT22;67102;51.666;6.880;2023-02-28T07:36:10;8.10;63.10
13412;DHT22;67102;51.666;6.880;2023-02-28T07:38:37;8.40;62.50
13412;DHT22;67102;51.666;6.880;2023-02-28T07:41:03;8.70;62.50
13412;DHT22;67102;51.666;6.880;2023-02-28T07:43:29;9.00;62.40
13412;DHT22;67102;51.666;6.880;2023-02-28T07:45:55;9.30;61.60
13412;DHT22;67102;51.666;6.880;2023-02-28T07:48:21;9.50;61.20
13412;DHT22;67102;51.666;6.880;2023-02-28T07:50:55;9.70;59.20
13412;DHT22;67102;51.666;6.880;2023-02-28T07:53:21;10.00;57.30
13412;DHT22;67102;51.666;6.880;2023-02-28T07:55:47;10.10;57.40
13412;DHT22;67102;51.666;6.880;2023-02-28T07:58:13;10.30;56.90
13412;DHT22;67102;51.666;6.880;2023-02-28T08:00:38;10.50;56.50
13412;DHT22;67102;51.666;6.880;2023-02-28T08:03:04;10.60;55.30
13412;DHT22;67102;51.666;6.880;2023-02-28T08:05:30;10.80;55.40
13412;DHT22;67102;51.666;6.880;2023-02-28T08:07:57;10.90;55.50
13412;DHT22;67102;51.666;6.880;2023-02-28T08:10:23;11.10;55.80
13412;DHT22;67102;51.666;6.880;2023-02-28T08:12:49;11.20;54.00
13412;DHT22;67102;51.666;6.880;2023-02-28T08:15:15;11.30;54.50
13412;DHT22;67102;51.666;6.880;2023-02-28T08:17:41;11.40;52.70
13412;DHT22;67102;51.666;6.880;2023-02-28T08:20:08;11.50;49.50
13412;DHT22;67102;51.666;6.880;2023-02-28T08:22:35;11.60;50.50
13412;DHT22;67102;51.666;6.880;2023-02-28T08:25:03;11.70;51.40
13412;DHT22;67102;51.666;6.880;2023-02-28T08:27:29;11.70;47.40
13412;DHT22;67102;51.666;6.880;2023-02-28T08:29:55;11.70;47.20
13412;DHT22;67102;51.666;6.880;2023-02-28T08:32:21;11.80;47.60
13412;DHT22;67102;51.666;6.880;2023-02-28T08:34:47;11.80;48.80
13412;DHT22;67102;51.666;6.880;2023-02-28T08:37:13;11.80;49.70
13412;DHT22;67102;51.666;6.880;2023-02-28T08:39:39;11.90;45.60
13412;DHT22;67102;51.666;6.880;2023-02-28T08:42:06;11.90;45.90
13412;DHT22;67102;51.666;6.880;2023-02-28T08:44:32;11.90;43.70
13412;DHT22;67102;51.666;6.880;2023-02-28T08:46:58;11.90;44.50
13412;DHT22;67102;51.666;6.880;2023-02-28T08:49:24;12.00;46.20
13412;DHT22;67102;51.666;6.880;2023-02-28T08:51:50;12.00;46.00
13412;DHT22;67102;51.666;6.880;2023-02-28T08:54:16;12.10;44.10
13412;DHT22;67102;51.666;6.880;2023-02-28T08:56:42;12.10;46.00
13412;DHT22;67102;51.666;6.880;2023-02-28T08:59:11;12.20;47.50
13412;DHT22;67102;51.666;6.880;2023-02-28T09:01:36;12.30;45.90
13412;DHT22;67102;51.666;6.880;2023-02-28T09:04:02;12.50;45.70
13412;DHT22;67102;51.666;6.880;2023-02-28T09:06:28;12.50;44.60
13412;DHT22;67102;51.666;6.880;2023-02-28T09:08:56;12.60;45.70
13412;DHT22;67102;51.666;6.880;2023-02-28T09:11:22;12.70;45.90
13412;DHT22;67102;51.666;6.880;2023-02-28T09:13:48;12.80;44.90
13412;DHT22;67102;51.666;6.880;2023-02-28T09:16:16;12.90;42.70
13412;DHT22;67102;51.666;6.880;2023-02-28T09:18:43;12.90;42.80
13412;DHT22;67102;51.666;6.880;2023-02-28T09:21:12;13.00;41.90
13412;DHT22;67102;51.666;6.880;2023-02-28T09:23:39;13.00;42.90
13412;DHT22;67102;51.666;6.880;2023-02-28T09:26:06;13.00;39.30
13412;DHT22;67102;51.666;6.880;2023-02-28T09:28:32;13.00;38.30
13412;DHT22;67102;51.666;6.880;2023-02-28T09:30:58;12.90;39.40
13412;DHT22;67102;51.666;6.880;2023-02-28T09:33:26;12.80;40.90
13412;DHT22;67102;51.666;6.880;2023-02-28T09:35:58;12.80;41.00
13412;DHT22;67102;51.666;6.880;2023-02-28T09:38:26;12.80;37.60
13412;DHT22;67102;51.666;6.880;2023-02-28T09:40:53;12.80;38.90
13412;DHT22;67102;51.666;6.880;2023-02-28T09:43:23;12.80;39.20
13412;DHT22;67102;51.666;6.880;2023-02-28T09:45:59;12.80;34.60
13412;DHT22;67102;51.666;6.880;2023-02-28T09:48:32;12.70;34.50
13412;DHT22;67102;51.666;6.880;2023-02-28T09:51:03;12.50;33.20
13412;DHT22;67102;51.666;6.880;2023-02-28T09:53:32;12.20;32.60
13412;DHT22;67102;51.666;6.880;2023-02-28T09:56:01;11.90;32.90
13412;DHT22;67102;51.666;6.880;2023-02-28T09:58:33;11.70;33.90
13412;DHT22;67102;51.666;6.880;2023-02-28T10:01:09;11.60;34.10
13412;DHT22;67102;51.666;6.880;2023-02-28T10:03:43;11.40;33.60
13412;DHT22;67102;51.666;6.880;2023-02-28T10:06:16;11.10;34.10
13412;DHT22;67102;51.666;6.880;2023-02-28T10:08:50;10.80;35.00
13412;DHT22;67102;51.666;6.880;2023-02-28T10:11:19;10.70;35.00
13412;DHT22;67102;51.666;6.880;2023-02-28T10:13:51;10.60;35.40
13412;DHT22;67102;51.666;6.880;2023-02-28T10:16:23;10.40;36.50
13412;DHT22;67102;51.666;6.880;2023-02-28T10:18:56;10.30;36.90
13412;DHT22;67102;51.666;6.880;2023-02-28T10:21:29;10.30;37.10
13412;DHT22;67102;51.666;6.880;2023-02-28T10:24:03;10.40;37.70
13412;DHT22;67102;51.666;6.880;2023-02-28T10:26:48;10.40;36.80
13412;DHT22;67102;51.666;6.880;2023-02-28T10:29:17;10.30;36.00
13412;DHT22;67102;51.666;6.880;2023-02-28T10:31:43;10.30;36.30
13412;DHT22;67102;51.666;6.880;2023-02-28T10:34:12;10.10;35.70
13412;DHT22;67102;51.666;6.880;2023-02-28T10:36:38;9.90;36.20
13412;DHT22;67102;51.666;6.880;2023-02-28T10:39:39;9.70;37.30
13412;DHT22;67102;51.666;6.880;2023-02-28T10:42:20;9.80;38.00
13412;DHT22;67102;51.666;6.880;2023-02-28T10:44:48;9.70;36.60
13412;DHT22;67102;51.666;6.880;2023-02-28T10:47:16;9.60;36.50
13412;DHT22;67102;51.666;6.880;2023-02-28T10:49:49;9.50;36.90
13412;DHT22;67102;51.666;6.880;2023-02-28T10:52:33;9.40;36.90
13412;DHT22;67102;51.666;6.880;2023-02-28T10:55:16;9.30;37.60
13412;DHT22;67102;51.666;6.880;2023-02-28T10:57:46;9.30;37.40
13412;DHT22;67102;51.666;6.880;2023-02-28T11:00:15;9.30;37.50
13412;DHT22;67102;51.666;6.880;2023-02-28T11:02:42;9.20;37.90
13412;DHT22;67102;51.666;6.880;2023-02-28T11:05:30;9.20;38.30
13412;DHT22;67102;51.666;6.880;2023-02-28T11:08:04;9.10;38.20
13412;DHT22;67102;51.666;6.880;2023-02-28T11:10:32;9.20;38.50
13412;DHT22;67102;51.666;6.880;2023-02-28T11:12:58;9.00;38.50
13412;DHT22;67102;51.666;6.880;2023-02-28T11:15:26;9.00;38.10
13412;DHT22;67102;51.666;6.880;2023-02-28T11:17:54;8.90;38.60
13412;DHT22;67102;51.666;6.880;2023-02-28T11:20:22;8.80;39.30
13412;DHT22;67102;51.666;6.880;2023-02-28T11:22:52;8.80;38.80
13412;DHT22;67102;51.666;6.880;2023-02-28T11:25:24;8.80;39.70
13412;DHT22;67102;51.666;6.880;2023-02-28T11:27:51;8.80;40.20
13412;DHT22;67102;51.666;6.880;2023-02-28T11:30:35;8.80;40.50
13412;DHT22;67102;51.666;6.880;2023-02-28T11:33:22;9.00;41.10
13412;DHT22;67102;51.666;6.880;2023-02-28T11:35:50;9.20;41.20
13412;DHT22;67102;51.666;6.880;2023-02-28T11:38:19;9.40;41.00
13412;DHT22;67102;51.666;6.880;2023-02-28T11:40:49;9.50;41.30
13412;DHT22;67102;51.666;6.880;2023-02-28T11:43:38;9.60;39.90
13412;DHT22;67102;51.666;6.880;2023-02-28T11:46:26;9.70;39.80
13412;DHT22;67102;51.666;6.880;2023-02-28T11:49:02;9.80;39.40
13412;DHT22;67102;51.666;6.880;2023-02-28T11:51:47;9.70;38.80
13412;DHT22;67102;51.666;6.880;2023-02-28T11:57:36;9.60;38.60
13412;DHT22;67102;51.666;6.880;2023-02-28T12:00:25;9.40;38.70
13412;DHT22;67102;51.666;6.880;2023-02-28T12:03:10;9.30;39.40
13412;DHT22;67102;51.666;6.880;2023-02-28T12:05:53;9.40;39.30
13412;DHT22;67102;51.666;6.880;2023-02-28T12:08:38;9.20;38.70
13412;DHT22;67102;51.666;6.880;2023-02-28T12:11:19;9.10;39.20
13412;DHT22;67102;51.666;6.880;2023-02-28T12:14:03;9.00;39.50
13412;DHT22;67102;51.666;6.880;2023-02-28T12:16:51;8.80;40.60
13412;DHT22;67102;51.666;6.880;2023-02-28T12:19:27;8.80;40.50
13412;DHT22;67102;51.666;6.880;2023-02-28T12:22:11;8.80;41.40
13412;DHT22;67102;51.666;6.880;2023-02-28T12:24:54;8.80;41.00
13412;DHT22;67102;51.666;6.880;2023-02-28T12:27:37;8.80;40.50
13412;DHT22;67102;51.666;6.880;2023-02-28T12:30:12;8.80;40.60
13412;DHT22;67102;51.666;6.880;2023-02-28T12:32:42;8.80;41.00
13412;DHT22;67102;51.666;6.880;2023-02-28T12:35:13;8.80;41.20
13412;DHT22;67102;51.666;6.880;2023-02-28T12:37:46;8.80;41.50
13412;DHT22;67102;51.666;6.880;2023-02-28T12:40:19;8.70;41.40
13412;DHT22;67102;51.666;6.880;2023-02-28T12:42:50;8.70;41.60
13412;DHT22;67102;51.666;6.880;2023-02-28T12:45:20;8.60;41.60
13412;DHT22;67102;51.666;6.880;2023-02-28T12:47:52;8.60;41.60
13412;DHT22;67102;51.666;6.880;2023-02-28T12:50:23;8.50;41.80
13412;DHT22;67102;51.666;6.880;2023-02-28T12:52:55;8.70;42.40
13412;DHT22;67102;51.666;6.880;2023-02-28T12:55:31;8.50;42.40
13412;DHT22;67102;51.666;6.880;2023-02-28T12:58:10;8.50;42.40
13412;DHT22;67102;51.666;6.880;2023-02-28T13:00:48;8.50;42.30
13412;DHT22;67102;51.666;6.880;2023-02-28T13:03:42;8.40;42.40
13412;DHT22;67102;51.666;6.880;2023-02-28T13:06:22;8.40;42.90
13412;DHT22;67102;51.666;6.880;2023-02-28T13:09:08;8.40;43.30
13412;DHT22;67102;51.666;6.880;2023-02-28T13:11:40;8.50;43.40
13412;DHT22;67102;51.666;6.880;2023-02-28T13:14:21;8.50;43.40
13412;DHT22;67102;51.666;6.880;2023-02-28T13:16:59;8.60;42.90
13412;DHT22;67102;51.666;6.880;2023-02-28T13:19:29;8.50;43.40
13412;DHT22;67102;51.666;6.880;2023-02-28T13:21:57;8.50;42.70
13412;DHT22;67102;51.666;6.880;2023-02-28T13:24:44;8.50;42.70
13412;DHT22;67102;51.666;6.880;2023-02-28T13:27:25;8.50;42.60
13412;DHT22;67102;51.666;6.880;2023-02-28T13:30:00;8.40;42.60
13412;DHT22;67102;51.666;6.880;2023-02-28T13:32:36;8.50;43.10
13412;DHT22;67102;51.666;6.880;2023-02-28T13:38:35;8.50;43.50
13412;DHT22;67102;51.666;6.880;2023-02-28T13:41:40;8.50;43.80
13412;DHT22;67102;51.666;6.880;2023-02-28T13:44:08;8.40;43.60
13412;DHT22;67102;51.666;6.880;2023-02-28T13:49:53;8.30;44.30
13412;DHT22;67102;51.666;6.880;2023-02-28T13:52:22;8.30;44.90
13412;DHT22;67102;51.666;6.880;2023-02-28T13:55:24;8.40;44.50
13412;DHT22;67102;51.666;6.880;2023-02-28T13:58:08;8.30;44.70
13412;DHT22;67102;51.666;6.880;2023-02-28T14:00:45;8.30;44.70
13412;DHT22;67102;51.666;6.880;2023-02-28T14:03:33;8.40;45.70
13412;DHT22;67102;51.666;6.880;2023-02-28T14:06:20;8.40;44.90
13412;DHT22;67102;51.666;6.880;2023-02-28T14:08:54;8.30;45.00
13412;DHT22;67102;51.666;6.880;2023-02-28T14:11:29;8.30;45.70
13412;DHT22;67102;51.666;6.880;2023-02-28T14:13:57;8.30;45.40
13412;DHT22;67102;51.666;6.880;2023-02-28T14:16:25;8.30;46.10
13412;DHT22;67102;51.666;6.880;2023-02-28T14:18:57;8.40;46.40
13412;DHT22;67102;51.666;6.880;2023-02-28T14:21:27;8.50;45.90
13412;DHT22;67102;51.666;6.880;2023-02-28T14:27:29;11.20;45.70
13412;DHT22;67102;51.666;6.880;2023-02-28T14:30:15;8.50;45.10
13412;DHT22;67102;51.666;6.880;2023-02-28T14:33:11;8.50;45.00
13412;DHT22;67102;51.666;6.880;2023-02-28T14:35:54;8.60;45.10
13412;DHT22;67102;51.666;6.880;2023-02-28T14:38:29;8.60;45.20
13412;DHT22;67102;51.666;6.880;2023-02-28T14:40:58;8.80;45.60
13412;DHT22;67102;51.666;6.880;2023-02-28T14:43:28;8.70;45.40
13412;DHT22;67102;51.666;6.880;2023-02-28T14:45:56;8.70;45.40
13412;DHT22;67102;51.666;6.880;2023-02-28T14:48:24;8.70;45.40
13412;DHT22;67102;51.666;6.880;2023-02-28T14:50:54;8.70;45.20
13412;DHT22;67102;51.666;6.880;2023-02-28T14:53:25;8.70;45.60
13412;DHT22;67102;51.666;6.880;2023-02-28T14:55:52;8.60;45.70
13412;DHT22;67102;51.666;6.880;2023-02-28T14:58:23;8.50;46.20
13412;DHT22;67102;51.666;6.880;2023-02-28T15:00:52;8.50;46.10
13412;DHT22;67102;51.666;6.880;2023-02-28T15:03:20;8.50;46.10
13412;DHT22;67102;51.666;6.880;2023-02-28T15:05:54;8.50;46.40
13412;DHT22;67102;51.666;6.880;2023-02-28T15:08:22;8.60;45.90
13412;DHT22;67102;51.666;6.880;2023-02-28T15:10:54;8.60;46.10
13412;DHT22;67102;51.666;6.880;2023-02-28T15:13:21;8.70;45.90
13412;DHT22;67102;51.666;6.880;2023-02-28T15:15:51;8.70;46.10
13412;DHT22;67102;51.666;6.880;2023-02-28T15:18:26;8.80;46.40
13412;DHT22;67102;51.666;6.880;2023-02-28T15:20:58;8.80;45.80
13412;DHT22;67102;51.666;6.880;2023-02-28T15:23:28;8.80;46.00
13412;DHT22;67102;51.666;6.880;2023-02-28T15:25:54;8.80;46.30
13412;DHT22;67102;51.666;6.880;2023-02-28T15:28:22;8.80;46.30
13412;DHT22;67102;51.666;6.880;2023-02-28T15:30:57;8.80;46.40
13412;DHT22;67102;51.666;6.880;2023-02-28T15:33:26;8.90;46.70
13412;DHT22;67102;51.666;6.880;2023-02-28T15:36:06;8.90;46.40
13412;DHT22;67102;51.666;6.880;2023-02-28T15:38:36;8.90;46.10
13412;DHT22;67102;51.666;6.880;2023-02-28T15:41:02;8.90;46.40
13412;DHT22;67102;51.666;6.880;2023-02-28T15:43:30;8.90;46.50
13412;DHT22;67102;51.666;6.880;2023-02-28T15:45:59;8.90;46.80
13412;DHT22;67102;51.666;6.880;2023-02-28T15:48:29;8.90;46.80
13412;DHT22;67102;51.666;6.880;2023-02-28T15:51:01;8.90;46.70
13412;DHT22;67102;51.666;6.880;2023-02-28T15:53:34;8.80;46.70
13412;DHT22;67102;51.666;6.880;2023-02-28T15:56:03;8.80;46.80
13412;DHT22;67102;51.666;6.880;2023-02-28T15:58:31;8.80;46.90
13412;DHT22;67102;51.666;6.880;2023-02-28T16:01:04;8.80;47.00
13412;DHT22;67102;51.666;6.880;2023-02-28T16:03:44;8.80;47.10
13412;DHT22;67102;51.666;6.880;2023-02-28T16:06:36;8.80;46.90
13412;DHT22;67102;51.666;6.880;2023-02-28T16:09:07;8.80;47.30
13412;DHT22;67102;51.666;6.880;2023-02-28T16:11:38;8.80;47.00
13412;DHT22;67102;51.666;6.880;2023-02-28T16:14:06;8.80;47.10
13412;DHT22;67102;51.666;6.880;2023-02-28T16:16:41;8.80;47.40
13412;DHT22;67102;51.666;6.880;2023-02-28T16:19:08;8.80;47.40
13412;DHT22;67102;51.666;6.880;2023-02-28T16:21:34;8.80;47.40